Time;durP1;ratioP1;P1;durP2;ratioP2;P2;SDS_P1;SDS_P2;PMS_P1;PMS_P2;Temp;Humidity;BMP_temperature;BMP_pressure;BME280_temperature;BME280_humidity;BME280_pressure;Samples;Min_cycle;Max_cycle;Signal;HPM_P1;HPM_P2
2022/08/23 00:08:24;;;;;;;6.57;3.27;;;19.20;99.90;;;;;;20866531;28;20064;-74
2022/08/23 00:18:25;;;;;;;7.03;3.27;;;19.20;99.90;;;;;;20847680;28;20025;-74
2022/08/23 00:28:26;;;;;;;7.43;2.80;;;19.00;99.90;;;;;;20847108;28;20033;-74
2022/08/23 00:38:27;;;;;;;5.53;2.87;;;19.00;99.90;;;;;;20846548;28;20507;-74
2022/08/23 00:48:28;;;;;;;6.23;2.80;;;19.00;99.90;;;;;;20864706;28;20017;-74
2022/08/23 00:58:30;;;;;;;;;;;18.80;99.90;;;;;;20878152;28;20320;-74
2022/08/23 01:08:33;;;;;;;4.80;3.33;;;18.10;99.90;;;;;;20876917;28;19909;-74
2022/08/23 01:18:35;;;;;;;6.07;2.50;;;18.10;99.90;;;;;;20841930;28;20415;-74
2022/08/23 01:28:39;;;;;;;12.85;3.60;;;17.30;99.90;;;;;;20875848;28;20025;-74
2022/08/23 01:38:40;;;;;;;5.47;3.60;;;16.90;99.90;;;;;;20849621;28;20057;-74
2022/08/23 01:48:41;;;;;;;4.23;2.80;;;17.50;99.90;;;;;;20862378;28;20022;-74
2022/08/23 01:58:42;;;;;;;4.90;3.30;;;17.60;99.90;;;;;;20833101;28;20365;-74
2022/08/23 02:09:00;;;;;;;6.55;3.20;;;17.50;99.90;;;;;;20831545;28;20037;-74
2022/08/23 02:19:05;;;;;;;5.22;3.13;;;17.40;99.90;;;;;;20812258;28;20063;-74
2022/08/23 02:29:07;;;;;;;9.10;3.60;;;17.30;99.90;;;;;;20813965;28;20369;-73
2022/08/23 02:39:08;;;;;;;;;;;16.90;99.90;;;;;;20812387;28;20029;-74
2022/08/23 02:49:09;;;;;;;8.80;3.45;;;16.50;99.90;;;;;;20811625;28;19915;-74
2022/08/23 02:59:10;;;;;;;;;;;16.20;99.90;;;;;;20811366;28;20399;-74
2022/08/23 03:09:11;;;;;;;7.30;3.90;;;16.00;99.90;;;;;;20809487;28;19909;-74
2022/08/23 03:19:13;;;;;;;5.77;3.20;;;16.40;99.90;;;;;;20808807;28;20111;-74
2022/08/23 03:29:14;;;;;;;8.90;3.63;;;16.30;99.90;;;;;;20826446;28;20483;-74
2022/08/23 03:39:35;;;;;;;4.83;3.30;;;16.10;99.90;;;;;;20806951;28;20040;-74
2022/08/23 03:49:37;;;;;;;22.77;4.47;;;15.90;99.90;;;;;;20808079;28;20435;-74
2022/08/23 03:59:39;;;;;;;5.60;3.70;;;15.70;99.90;;;;;;20807758;28;20033;-74
2022/08/23 04:09:43;;;;;;;8.35;3.85;;;15.60;99.90;;;;;;20807139;28;20411;-74
2022/08/23 04:19:45;;;;;;;3.58;2.83;;;15.70;99.90;;;;;;20806957;28;20033;-74
2022/08/23 04:29:46;;;;;;;;;;;15.70;99.90;;;;;;20821314;28;20087;-74
2022/08/23 04:50:14;;;;;;;4.75;3.10;;;15.60;99.90;;;;;;20822753;28;20029;-75
2022/08/23 05:00:33;;;;;;;5.55;3.33;;;15.60;99.90;;;;;;20839502;28;20037;-75
2022/08/23 05:10:35;;;;;;;4.75;3.50;;;15.70;99.90;;;;;;20831680;28;20025;-74
2022/08/23 05:20:37;;;;;;;5.07;3.87;;;15.70;99.90;;;;;;20878017;28;20051;-74
2022/08/23 05:30:38;;;;;;;7.75;3.45;;;15.90;99.90;;;;;;20917439;28;20086;-74
2022/08/23 05:40:39;;;;;;;4.82;3.83;;;16.10;99.90;;;;;;20891105;22;20054;-77
2022/08/23 05:50:44;;;;;;;7.60;4.40;;;16.30;99.90;;;;;;20833228;28;20041;-78
2022/08/23 06:00:45;;;;;;;10.15;4.18;;;16.60;99.90;;;;;;20832744;28;20029;-77
2022/08/23 06:10:47;;;;;;;7.13;3.97;;;16.90;99.90;;;;;;20831137;28;20117;-78
2022/08/23 06:21:06;;;;;;;8.52;4.40;;;17.30;99.90;;;;;;20827870;28;20384;-77
2022/08/23 06:31:44;;;;;;;7.65;4.60;;;17.50;99.90;;;;;;20846216;28;20029;-77
2022/08/23 06:41:44;;;;;;;10.45;3.80;;;17.80;99.90;;;;;;20828643;28;20037;-77
2022/08/23 06:52:06;;;;;;;7.43;3.73;;;18.60;99.90;;;;;;20828145;28;20120;-77
2022/08/23 07:02:19;;;;;;;8.65;3.67;;;19.50;99.90;;;;;;20827477;28;20029;-77
2022/08/23 07:12:32;;;;;;;5.72;3.53;;;19.80;99.90;;;;;;20828353;28;20490;-77
2022/08/23 07:22:33;;;;;;;7.43;3.83;;;20.20;99.90;;;;;;20826238;28;20060;-77
2022/08/23 07:32:34;;;;;;;;;;;20.30;99.90;;;;;;20826518;28;20037;-78
2022/08/23 07:42:56;;;;;;;7.57;3.25;;;21.30;99.90;;;;;;20811108;28;19920;-78
2022/08/23 07:52:57;;;;;;;5.88;2.67;;;22.50;99.90;;;;;;20841136;28;20112;-78
2022/08/23 08:02:58;;;;;;;;;;;23.10;99.90;;;;;;20840827;28;20496;-78
2022/08/23 08:13:09;;;;;;;5.03;2.00;;;23.20;99.90;;;;;;20841483;28;19928;-78
2022/08/23 08:23:09;;;;;;;2.90;1.85;;;24.70;99.90;;;;;;20827018;28;20495;-78
2022/08/23 08:33:30;;;;;;;4.13;1.90;;;25.50;99.90;;;;;;20832051;28;20045;-78
2022/08/23 08:43:52;;;;;;;4.18;2.80;;;26.00;99.90;;;;;;20813073;28;20423;-78
2022/08/23 08:53:55;;;;;;;3.97;1.73;;;25.40;99.90;;;;;;20831037;28;20026;-78
2022/08/23 09:04:04;;;;;;;7.95;1.70;;;27.10;99.90;;;;;;20832576;28;20041;-78
2022/08/23 09:14:32;;;;;;;5.32;1.33;;;27.60;99.90;;;;;;20860284;28;20029;-78
2022/08/23 09:24:34;;;;;;;1.67;1.40;;;28.00;99.90;;;;;;20821406;28;20045;-78
2022/08/23 09:34:43;;;;;;;3.47;1.35;;;27.90;99.90;;;;;;20854476;28;20554;-78
2022/08/23 09:44:46;;;;;;;3.60;1.70;;;27.40;99.90;;;;;;20871026;28;20033;-79
2022/08/23 09:54:59;;;;;;;4.25;1.70;;;28.10;99.90;;;;;;20859534;28;20120;-78
2022/08/23 10:05:03;;;;;;;3.40;1.60;;;28.10;99.90;;;;;;20882594;28;20041;-79
2022/08/23 10:15:08;;;;;;;5.88;1.60;;;29.10;99.90;;;;;;20897952;28;20039;-79
2022/08/23 10:25:37;;;;;;;1.95;1.20;;;29.10;99.90;;;;;;20921640;28;20082;-78
2022/08/23 10:35:48;;;;;;;8.48;1.27;;;29.10;99.90;;;;;;20888898;28;20030;-79
2022/08/23 10:45:51;;;;;;;4.82;1.40;;;30.20;99.90;;;;;;20881165;28;20530;-80
2022/08/23 10:56:06;;;;;;;3.70;1.52;;;30.50;98.60;;;;;;20896043;28;20029;-79
2022/08/23 11:06:25;;;;;;;5.65;1.52;;;30.80;97.10;;;;;;20994122;28;20039;-79
2022/08/23 11:16:30;;;;;;;3.25;1.33;;;31.00;95.40;;;;;;20998982;28;20032;-79
2022/08/23 11:26:40;;;;;;;6.57;1.25;;;31.70;95.10;;;;;;20961819;28;20054;-79
2022/08/23 11:37:17;;;;;;;1.85;1.00;;;31.30;93.90;;;;;;20992282;22;20529;-74
2022/08/23 11:47:42;;;;;;;6.72;1.20;;;31.90;94.50;;;;;;20903347;28;20028;-74
2022/08/23 11:58:04;;;;;;;3.15;1.08;;;31.20;94.50;;;;;;20915038;28;20040;-75
2022/08/23 12:08:29;;;;;;;2.35;1.05;;;31.90;92.10;;;;;;20953728;28;20049;-75
2022/08/23 12:18:33;;;;;;;3.20;1.10;;;32.10;90.90;;;;;;20911558;28;20025;-74
2022/08/23 12:28:42;;;;;;;3.15;1.20;;;31.90;92.10;;;;;;20924156;28;20036;-75
2022/08/23 12:39:18;;;;;;;3.17;1.60;;;30.30;92.70;;;;;;20986518;28;20040;-74
2022/08/23 12:49:27;;;;;;;4.10;1.38;;;32.00;90.70;;;;;;20869600;28;20037;-75
2022/08/23 12:59:43;;;;;;;8.00;0.98;;;31.10;91.30;;;;;;20879641;28;20510;-74
2022/08/23 13:09:45;;;;;;;2.13;1.30;;;31.80;90.60;;;;;;20874345;28;20040;-75
2022/08/23 13:19:48;;;;;;;3.35;1.10;;;31.00;92.20;;;;;;20873513;28;20025;-75
2022/08/23 13:29:52;;;;;;;4.05;1.42;;;32.40;90.20;;;;;;20878360;28;20446;-74
2022/08/23 13:39:57;;;;;;;1.33;0.90;;;32.60;91.10;;;;;;20872543;28;20094;-77
2022/08/23 13:50:00;;;;;;;2.65;1.20;;;32.20;89.60;;;;;;20871198;28;20017;-77
2022/08/23 14:00:02;;;;;;;5.60;1.30;;;32.10;89.40;;;;;;20873293;28;20022;-78
2022/08/23 14:10:10;;;;;;;3.40;1.20;;;31.60;88.80;;;;;;20926112;28;20036;-78
2022/08/23 14:20:11;;;;;;;1.60;0.98;;;31.80;87.50;;;;;;20991080;28;20054;-78
2022/08/23 14:30:31;;;;;;;2.20;1.20;;;31.20;87.20;;;;;;20950207;28;20052;-77
2022/08/23 14:40:34;;;;;;;4.53;1.00;;;31.60;88.50;;;;;;20918785;28;20032;-76
2022/08/23 14:50:35;;;;;;;3.53;1.30;;;31.30;88.20;;;;;;20863296;28;20514;-77
2022/08/23 15:00:36;;;;;;;4.30;1.00;;;31.80;85.50;;;;;;20861564;28;20033;-77
2022/08/23 15:10:37;;;;;;;4.60;1.02;;;31.30;84.00;;;;;;20863967;28;20116;-76
2022/08/23 15:20:38;;;;;;;3.20;1.08;;;31.20;83.60;;;;;;20866182;28;20120;-76
2022/08/23 15:30:40;;;;;;;5.38;1.17;;;31.10;82.70;;;;;;20941141;28;20063;-75
2022/08/23 15:40:42;;;;;;;4.72;1.20;;;30.50;85.00;;;;;;20987958;28;20032;-76
2022/08/23 15:50:45;;;;;;;2.65;1.13;;;30.60;86.20;;;;;;20883732;28;20029;-76
2022/08/23 16:00:47;;;;;;;2.72;1.35;;;30.30;87.20;;;;;;20899139;28;20033;-76
2022/08/23 16:10:48;;;;;;;3.70;1.17;;;29.10;90.30;;;;;;20907899;28;20041;-76
2022/08/23 16:20:48;;;;;;;4.03;1.30;;;29.00;90.20;;;;;;20913813;28;20116;-75
2022/08/23 16:30:49;;;;;;;6.28;2.08;;;28.60;91.10;;;;;;20886242;28;20116;-75
2022/08/23 16:40:50;;;;;;;7.53;1.20;;;28.50;90.80;;;;;;20841669;28;20033;-75
2022/08/23 16:50:51;;;;;;;4.38;1.02;;;28.10;91.90;;;;;;20890713;28;20030;-76
2022/08/23 17:00:52;;;;;;;7.28;1.20;;;27.90;91.60;;;;;;20899886;28;20075;-76
2022/08/23 17:10:53;;;;;;;1.95;1.10;;;27.70;92.10;;;;;;20832162;28;20037;-76
2022/08/23 17:20:54;;;;;;;2.63;1.35;;;27.50;92.70;;;;;;20834182;28;20029;-76
2022/08/23 17:30:54;;;;;;;3.00;1.40;;;27.20;93.30;;;;;;20875794;28;20067;-76
2022/08/23 17:40:56;;;;;;;2.45;1.45;;;26.80;93.50;;;;;;20929743;22;20055;-73
2022/08/23 17:50:58;;;;;;;2.92;1.45;;;26.50;94.30;;;;;;20916960;28;20045;-73
2022/08/23 18:01:00;;;;;;;3.65;1.75;;;26.10;95.00;;;;;;20874868;28;20443;-73
2022/08/23 18:11:01;;;;;;;2.85;1.48;;;25.80;95.30;;;;;;20833521;28;20026;-73
2022/08/23 18:21:05;;;;;;;;;;;25.00;96.20;;;;;;20832492;28;20079;-74
2022/08/23 18:31:06;;;;;;;4.32;1.60;;;24.40;98.60;;;;;;20872345;28;19920;-73
2022/08/23 18:41:07;;;;;;;5.00;1.80;;;23.60;99.40;;;;;;20909659;28;20033;-73
2022/08/23 18:51:08;;;;;;;9.93;2.70;;;22.90;99.90;;;;;;20908782;28;20848;-74
2022/08/23 19:01:22;;;;;;;5.07;1.98;;;22.20;99.90;;;;;;20920227;28;20029;-73
2022/08/23 19:11:23;;;;;;;4.22;1.77;;;21.70;99.90;;;;;;20944959;28;20061;-73
2022/08/23 19:21:25;;;;;;;19.98;2.40;;;21.80;99.90;;;;;;20942382;28;20417;-73
2022/08/23 19:31:27;;;;;;;8.35;1.80;;;21.10;99.90;;;;;;20941804;28;20149;-74
2022/08/23 19:41:29;;;;;;;2.92;1.73;;;21.10;99.90;;;;;;20947252;28;20032;-73
2022/08/23 19:51:30;;;;;;;7.50;1.98;;;20.50;99.90;;;;;;20958307;28;20512;-73
2022/08/23 20:01:31;;;;;;;5.10;2.20;;;19.60;99.90;;;;;;20898711;28;20365;-73
2022/08/23 20:11:32;;;;;;;7.50;2.38;;;19.30;99.90;;;;;;20846908;28;20122;-73
2022/08/23 20:21:33;;;;;;;8.82;2.63;;;19.70;99.90;;;;;;20903487;28;20724;-73
2022/08/23 20:31:38;;;;;;;3.10;2.13;;;18.80;99.90;;;;;;20891111;28;20071;-73
2022/08/23 20:41:39;;;;;;;5.85;2.70;;;19.10;99.90;;;;;;20903972;28;20507;-74
2022/08/23 20:51:41;;;;;;;5.00;2.30;;;19.30;99.90;;;;;;20890616;28;20040;-73
2022/08/23 21:01:41;;;;;;;3.20;2.33;;;19.00;99.90;;;;;;20886122;28;20126;-73
2022/08/23 21:11:42;;;;;;;5.40;2.30;;;18.90;99.90;;;;;;20900165;28;20025;-74
2022/08/23 21:21:43;;;;;;;4.90;2.37;;;19.10;99.90;;;;;;20897996;28;20064;-74
2022/08/23 21:31:44;;;;;;;3.73;2.40;;;18.60;99.90;;;;;;20852981;28;20037;-72
2022/08/23 21:41:47;;;;;;;4.37;2.43;;;18.90;99.90;;;;;;20898688;28;20060;-72
2022/08/23 21:51:50;;;;;;;3.15;2.03;;;19.20;99.90;;;;;;20998209;28;20521;-73
2022/08/23 22:01:50;;;;;;;9.23;2.20;;;19.10;99.90;;;;;;20947553;28;20043;-73
2022/08/23 22:11:53;;;;;;;5.80;2.83;;;19.00;99.90;;;;;;20941294;28;20017;-73
2022/08/23 22:21:55;;;;;;;3.90;2.20;;;19.00;99.90;;;;;;20948211;28;20039;-73
2022/08/23 22:31:56;;;;;;;3.83;2.30;;;19.00;99.90;;;;;;20950176;28;20035;-73
2022/08/23 22:41:56;;;;;;;6.63;2.17;;;18.90;99.90;;;;;;20927990;28;20033;-73
2022/08/23 22:51:57;;;;;;;5.77;1.90;;;18.90;99.90;;;;;;20909185;28;20024;-73
2022/08/23 23:01:58;;;;;;;3.23;2.17;;;18.70;99.90;;;;;;20940615;28;20108;-73
2022/08/23 23:11:59;;;;;;;4.23;2.27;;;18.50;99.90;;;;;;20945291;28;20386;-73
2022/08/23 23:22:01;;;;;;;2.83;2.10;;;18.40;99.90;;;;;;20941233;28;20124;-73
2022/08/23 23:32:02;;;;;;;3.97;2.42;;;18.20;99.90;;;;;;20945220;28;20442;-73
2022/08/23 23:42:03;;;;;;;5.53;2.27;;;18.10;99.90;;;;;;20963146;23;20136;-76
2022/08/23 23:52:06;;;;;;;4.63;2.80;;;18.00;99.90;;;;;;20926571;28;20033;-76
